sensor_id;sensor_type;location;lat;lon;timestamp;temperature;humidity
28552;DHT22;15752;49.560;8.708;2023-02-10T00:01:42;2.80;95.20
28552;DHT22;15752;49.560;8.708;2023-02-10T00:04:13;2.80;94.80
28552;DHT22;15752;49.560;8.708;2023-02-10T00:06:41;2.80;94.80
28552;DHT22;15752;49.560;8.708;2023-02-10T00:09:12;2.70;94.60
28552;DHT22;15752;49.560;8.708;2023-02-10T00:11:41;2.70;95.20
28552;DHT22;15752;49.560;8.708;2023-02-10T00:14:27;2.70;94.80
28552;DHT22;15752;49.560;8.708;2023-02-10T00:16:57;2.90;95.00
28552;DHT22;15752;49.560;8.708;2023-02-10T00:19:28;2.70;94.80
28552;DHT22;15752;49.560;8.708;2023-02-10T00:21:57;2.70;94.80
28552;DHT22;15752;49.560;8.708;2023-02-10T00:24:26;2.60;94.70
28552;DHT22;15752;49.560;8.708;2023-02-10T00:26:55;2.90;94.90
28552;DHT22;15752;49.560;8.708;2023-02-10T00:29:24;2.60;94.70
28552;DHT22;15752;49.560;8.708;2023-02-10T00:31:55;2.60;94.70
28552;DHT22;15752;49.560;8.708;2023-02-10T00:34:24;2.60;94.70
28552;DHT22;15752;49.560;8.708;2023-02-10T00:36:54;2.60;94.70
28552;DHT22;15752;49.560;8.708;2023-02-10T00:39:22;2.60;94.80
28552;DHT22;15752;49.560;8.708;2023-02-10T00:41:51;2.70;94.70
28552;DHT22;15752;49.560;8.708;2023-02-10T00:44:19;2.60;94.70
28552;DHT22;15752;49.560;8.708;2023-02-10T00:46:48;2.60;94.80
28552;DHT22;15752;49.560;8.708;2023-02-10T00:49:16;2.60;94.70
28552;DHT22;15752;49.560;8.708;2023-02-10T00:51:45;2.50;94.70
28552;DHT22;15752;49.560;8.708;2023-02-10T00:54:15;2.50;94.70
28552;DHT22;15752;49.560;8.708;2023-02-10T00:56:44;2.50;94.70
28552;DHT22;15752;49.560;8.708;2023-02-10T00:59:13;2.50;94.70
28552;DHT22;15752;49.560;8.708;2023-02-10T01:01:42;2.50;94.70
28552;DHT22;15752;49.560;8.708;2023-02-10T01:04:11;2.50;94.70
28552;DHT22;15752;49.560;8.708;2023-02-10T01:06:39;2.50;94.80
28552;DHT22;15752;49.560;8.708;2023-02-10T01:09:08;2.50;94.70
28552;DHT22;15752;49.560;8.708;2023-02-10T01:11:38;2.40;94.80
28552;DHT22;15752;49.560;8.708;2023-02-10T01:14:06;2.40;94.80
28552;DHT22;15752;49.560;8.708;2023-02-10T01:16:35;2.40;94.80
28552;DHT22;15752;49.560;8.708;2023-02-10T01:19:03;2.40;94.80
28552;DHT22;15752;49.560;8.708;2023-02-10T01:21:32;2.40;94.70
28552;DHT22;15752;49.560;8.708;2023-02-10T01:24:05;2.40;94.90
28552;DHT22;15752;49.560;8.708;2023-02-10T01:26:34;2.50;94.90
28552;DHT22;15752;49.560;8.708;2023-02-10T01:32:44;2.30;95.00
28552;DHT22;15752;49.560;8.708;2023-02-10T01:35:12;2.30;94.80
28552;DHT22;15752;49.560;8.708;2023-02-10T01:37:41;2.30;94.80
28552;DHT22;15752;49.560;8.708;2023-02-10T01:40:10;2.30;94.80
28552;DHT22;15752;49.560;8.708;2023-02-10T01:42:38;2.30;95.00
28552;DHT22;15752;49.560;8.708;2023-02-10T01:45:16;2.30;94.90
28552;DHT22;15752;49.560;8.708;2023-02-10T01:47:50;2.20;95.10
28552;DHT22;15752;49.560;8.708;2023-02-10T01:50:23;2.50;95.10
28552;DHT22;15752;49.560;8.708;2023-02-10T01:52:53;2.30;95.10
28552;DHT22;15752;49.560;8.708;2023-02-10T01:55:25;2.20;95.00
28552;DHT22;15752;49.560;8.708;2023-02-10T01:57:56;2.20;95.00
28552;DHT22;15752;49.560;8.708;2023-02-10T02:00:26;2.40;94.90
28552;DHT22;15752;49.560;8.708;2023-02-10T02:02:58;2.20;94.90
28552;DHT22;15752;49.560;8.708;2023-02-10T02:05:30;2.20;95.00
28552;DHT22;15752;49.560;8.708;2023-02-10T02:08:03;2.30;95.40
28552;DHT22;15752;49.560;8.708;2023-02-10T02:13:39;2.20;95.10
28552;DHT22;15752;49.560;8.708;2023-02-10T02:16:22;2.20;95.10
28552;DHT22;15752;49.560;8.708;2023-02-10T02:19:08;2.20;95.10
28552;DHT22;15752;49.560;8.708;2023-02-10T02:22:09;2.20;95.10
28552;DHT22;15752;49.560;8.708;2023-02-10T02:25:02;2.20;95.10
28552;DHT22;15752;49.560;8.708;2023-02-10T02:28:05;2.20;95.00
28552;DHT22;15752;49.560;8.708;2023-02-10T02:30:49;2.20;95.10
28552;DHT22;15752;49.560;8.708;2023-02-10T02:33:33;2.10;95.00
28552;DHT22;15752;49.560;8.708;2023-02-10T02:36:09;2.10;95.00
28552;DHT22;15752;49.560;8.708;2023-02-10T02:38:41;2.10;95.00
28552;DHT22;15752;49.560;8.708;2023-02-10T02:41:10;2.10;94.90
28552;DHT22;15752;49.560;8.708;2023-02-10T02:43:40;2.10;95.00
28552;DHT22;15752;49.560;8.708;2023-02-10T02:46:22;2.00;94.90
28552;DHT22;15752;49.560;8.708;2023-02-10T02:49:03;2.30;95.20
28552;DHT22;15752;49.560;8.708;2023-02-10T02:51:42;2.20;95.10
28552;DHT22;15752;49.560;8.708;2023-02-10T02:54:19;2.00;95.10
28552;DHT22;15752;49.560;8.708;2023-02-10T02:56:59;2.00;95.10
28552;DHT22;15752;49.560;8.708;2023-02-10T02:59:35;2.10;95.10
28552;DHT22;15752;49.560;8.708;2023-02-10T03:02:09;2.00;95.00
28552;DHT22;15752;49.560;8.708;2023-02-10T03:04:42;2.20;95.10
28552;DHT22;15752;49.560;8.708;2023-02-10T03:07:11;2.30;95.20
28552;DHT22;15752;49.560;8.708;2023-02-10T03:09:39;2.00;95.00
28552;DHT22;15752;49.560;8.708;2023-02-10T03:12:08;2.00;95.00
28552;DHT22;15752;49.560;8.708;2023-02-10T03:14:39;2.00;95.00
28552;DHT22;15752;49.560;8.708;2023-02-10T03:17:07;2.20;95.10
28552;DHT22;15752;49.560;8.708;2023-02-10T03:19:36;2.00;95.00
28552;DHT22;15752;49.560;8.708;2023-02-10T03:22:06;1.90;94.80
28552;DHT22;15752;49.560;8.708;2023-02-10T03:24:34;2.10;95.00
28552;DHT22;15752;49.560;8.708;2023-02-10T03:27:03;2.10;95.00
28552;DHT22;15752;49.560;8.708;2023-02-10T03:29:32;1.90;95.00
28552;DHT22;15752;49.560;8.708;2023-02-10T03:32:00;1.90;94.90
28552;DHT22;15752;49.560;8.708;2023-02-10T03:34:30;2.00;94.90
28552;DHT22;15752;49.560;8.708;2023-02-10T03:36:59;1.90;94.90
28552;DHT22;15752;49.560;8.708;2023-02-10T03:39:28;1.90;94.90
28552;DHT22;15752;49.560;8.708;2023-02-10T03:41:57;1.90;94.90
28552;DHT22;15752;49.560;8.708;2023-02-10T03:44:25;1.90;94.90
28552;DHT22;15752;49.560;8.708;2023-02-10T03:46:53;1.90;95.30
28552;DHT22;15752;49.560;8.708;2023-02-10T03:49:25;1.90;95.00
28552;DHT22;15752;49.560;8.708;2023-02-10T03:51:53;1.90;95.10
28552;DHT22;15752;49.560;8.708;2023-02-10T03:54:22;1.90;94.90
28552;DHT22;15752;49.560;8.708;2023-02-10T03:56:52;2.00;94.90
28552;DHT22;15752;49.560;8.708;2023-02-10T03:59:20;1.90;94.90
28552;DHT22;15752;49.560;8.708;2023-02-10T04:01:48;1.90;94.90
28552;DHT22;15752;49.560;8.708;2023-02-10T04:04:17;1.80;94.90
28552;DHT22;15752;49.560;8.708;2023-02-10T04:06:46;1.80;95.00
28552;DHT22;15752;49.560;8.708;2023-02-10T04:09:14;1.80;94.90
28552;DHT22;15752;49.560;8.708;2023-02-10T04:11:43;2.00;95.00
28552;DHT22;15752;49.560;8.708;2023-02-10T04:14:12;2.10;95.00
28552;DHT22;15752;49.560;8.708;2023-02-10T04:16:41;1.80;94.80
28552;DHT22;15752;49.560;8.708;2023-02-10T04:19:09;1.80;94.90
28552;DHT22;15752;49.560;8.708;2023-02-10T04:21:37;1.80;94.80
28552;DHT22;15752;49.560;8.708;2023-02-10T04:24:06;1.70;94.90
28552;DHT22;15752;49.560;8.708;2023-02-10T04:26:34;1.70;94.90
28552;DHT22;15752;49.560;8.708;2023-02-10T04:29:03;1.70;94.90
28552;DHT22;15752;49.560;8.708;2023-02-10T04:31:32;1.70;94.90
28552;DHT22;15752;49.560;8.708;2023-02-10T04:34:01;1.90;95.00
28552;DHT22;15752;49.560;8.708;2023-02-10T04:36:29;1.70;95.00
28552;DHT22;15752;49.560;8.708;2023-02-10T04:38:58;1.70;95.00
28552;DHT22;15752;49.560;8.708;2023-02-10T04:41:26;1.70;95.00
28552;DHT22;15752;49.560;8.708;2023-02-10T04:43:55;1.70;95.00
28552;DHT22;15752;49.560;8.708;2023-02-10T04:46:23;1.70;94.90
28552;DHT22;15752;49.560;8.708;2023-02-10T04:48:53;1.70;94.90
28552;DHT22;15752;49.560;8.708;2023-02-10T04:51:21;1.70;95.00
28552;DHT22;15752;49.560;8.708;2023-02-10T04:53:50;1.60;94.90
28552;DHT22;15752;49.560;8.708;2023-02-10T04:56:18;1.60;94.90
28552;DHT22;15752;49.560;8.708;2023-02-10T04:58:46;1.60;94.90
28552;DHT22;15752;49.560;8.708;2023-02-10T05:01:15;1.60;94.90
28552;DHT22;15752;49.560;8.708;2023-02-10T05:03:43;1.60;94.70
28552;DHT22;15752;49.560;8.708;2023-02-10T05:06:14;1.60;94.90
28552;DHT22;15752;49.560;8.708;2023-02-10T05:08:43;1.60;95.00
28552;DHT22;15752;49.560;8.708;2023-02-10T05:11:14;1.80;94.90
28552;DHT22;15752;49.560;8.708;2023-02-10T05:13:43;1.60;95.00
28552;DHT22;15752;49.560;8.708;2023-02-10T05:16:13;1.60;95.00
28552;DHT22;15752;49.560;8.708;2023-02-10T05:18:42;1.70;95.10
28552;DHT22;15752;49.560;8.708;2023-02-10T05:21:14;1.70;95.00
28552;DHT22;15752;49.560;8.708;2023-02-10T05:23:42;1.60;95.20
28552;DHT22;15752;49.560;8.708;2023-02-10T05:26:10;1.60;95.10
28552;DHT22;15752;49.560;8.708;2023-02-10T05:28:39;1.80;95.10
28552;DHT22;15752;49.560;8.708;2023-02-10T05:31:07;1.60;95.00
28552;DHT22;15752;49.560;8.708;2023-02-10T05:33:36;1.60;95.10
28552;DHT22;15752;49.560;8.708;2023-02-10T05:36:04;1.80;95.20
28552;DHT22;15752;49.560;8.708;2023-02-10T05:38:34;1.60;95.30
28552;DHT22;15752;49.560;8.708;2023-02-10T05:41:03;1.60;95.10
28552;DHT22;15752;49.560;8.708;2023-02-10T05:43:31;1.60;95.20
28552;DHT22;15752;49.560;8.708;2023-02-10T05:46:00;1.60;95.10
28552;DHT22;15752;49.560;8.708;2023-02-10T05:48:28;1.60;95.40
28552;DHT22;15752;49.560;8.708;2023-02-10T05:50:56;1.60;95.10
28552;DHT22;15752;49.560;8.708;2023-02-10T05:53:25;1.60;95.20
28552;DHT22;15752;49.560;8.708;2023-02-10T05:55:54;1.60;95.20
28552;DHT22;15752;49.560;8.708;2023-02-10T05:58:23;1.60;95.20
28552;DHT22;15752;49.560;8.708;2023-02-10T06:00:51;1.80;95.10
28552;DHT22;15752;49.560;8.708;2023-02-10T06:03:19;1.60;95.20
28552;DHT22;15752;49.560;8.708;2023-02-10T06:05:48;1.60;95.20
28552;DHT22;15752;49.560;8.708;2023-02-10T06:08:17;1.60;95.20
28552;DHT22;15752;49.560;8.708;2023-02-10T06:10:46;1.60;95.40
28552;DHT22;15752;49.560;8.708;2023-02-10T06:13:16;1.60;95.20
28552;DHT22;15752;49.560;8.708;2023-02-10T06:15:44;1.60;95.30
28552;DHT22;15752;49.560;8.708;2023-02-10T06:18:13;1.60;95.40
28552;DHT22;15752;49.560;8.708;2023-02-10T06:20:44;1.90;95.50
28552;DHT22;15752;49.560;8.708;2023-02-10T06:23:13;1.60;95.50
28552;DHT22;15752;49.560;8.708;2023-02-10T06:25:43;1.60;95.40
28552;DHT22;15752;49.560;8.708;2023-02-10T06:28:17;1.60;95.30
28552;DHT22;15752;49.560;8.708;2023-02-10T06:30:47;1.60;95.30
28552;DHT22;15752;49.560;8.708;2023-02-10T06:33:15;1.70;95.40
28552;DHT22;15752;49.560;8.708;2023-02-10T06:35:44;1.70;95.40
28552;DHT22;15752;49.560;8.708;2023-02-10T06:38:15;1.70;95.50
28552;DHT22;15752;49.560;8.708;2023-02-10T06:40:43;1.70;95.50
28552;DHT22;15752;49.560;8.708;2023-02-10T06:43:12;2.00;95.30
28552;DHT22;15752;49.560;8.708;2023-02-10T06:45:41;1.70;95.20
28552;DHT22;15752;49.560;8.708;2023-02-10T06:48:10;1.70;95.10
28552;DHT22;15752;49.560;8.708;2023-02-10T06:50:38;2.00;95.30
28552;DHT22;15752;49.560;8.708;2023-02-10T06:53:06;1.70;95.30
28552;DHT22;15752;49.560;8.708;2023-02-10T06:55:35;1.70;95.10
28552;DHT22;15752;49.560;8.708;2023-02-10T06:58:03;1.80;95.40
28552;DHT22;15752;49.560;8.708;2023-02-10T07:00:32;1.80;95.50
28552;DHT22;15752;49.560;8.708;2023-02-10T07:03:01;2.20;95.50
28552;DHT22;15752;49.560;8.708;2023-02-10T07:05:30;1.80;95.30
28552;DHT22;15752;49.560;8.708;2023-02-10T07:07:59;1.90;95.30
28552;DHT22;15752;49.560;8.708;2023-02-10T07:10:29;1.80;95.00
28552;DHT22;15752;49.560;8.708;2023-02-10T07:12:57;1.80;95.40
28552;DHT22;15752;49.560;8.708;2023-02-10T07:15:26;1.80;95.10
28552;DHT22;15752;49.560;8.708;2023-02-10T07:17:54;1.80;95.20
28552;DHT22;15752;49.560;8.708;2023-02-10T07:20:24;2.20;95.50
28552;DHT22;15752;49.560;8.708;2023-02-10T07:22:53;1.90;95.50
28552;DHT22;15752;49.560;8.708;2023-02-10T07:25:21;1.90;95.50
28552;DHT22;15752;49.560;8.708;2023-02-10T07:27:49;2.10;95.50
28552;DHT22;15752;49.560;8.708;2023-02-10T07:30:18;2.10;95.40
28552;DHT22;15752;49.560;8.708;2023-02-10T07:32:46;2.00;95.60
28552;DHT22;15752;49.560;8.708;2023-02-10T07:35:15;2.30;95.70
28552;DHT22;15752;49.560;8.708;2023-02-10T07:37:45;2.00;95.60
28552;DHT22;15752;49.560;8.708;2023-02-10T07:40:13;2.00;95.60
28552;DHT22;15752;49.560;8.708;2023-02-10T07:42:42;2.20;95.70
28552;DHT22;15752;49.560;8.708;2023-02-10T07:45:24;2.00;95.40
28552;DHT22;15752;49.560;8.708;2023-02-10T07:47:57;2.20;95.70
28552;DHT22;15752;49.560;8.708;2023-02-10T07:50:26;2.30;95.80
28552;DHT22;15752;49.560;8.708;2023-02-10T07:52:59;2.10;95.80
28552;DHT22;15752;49.560;8.708;2023-02-10T07:55:28;2.10;95.70
28552;DHT22;15752;49.560;8.708;2023-02-10T07:57:56;2.50;95.60
28552;DHT22;15752;49.560;8.708;2023-02-10T08:00:24;2.10;95.60
28552;DHT22;15752;49.560;8.708;2023-02-10T08:02:53;2.10;95.70
28552;DHT22;15752;49.560;8.708;2023-02-10T08:05:21;2.20;95.70
28552;DHT22;15752;49.560;8.708;2023-02-10T08:07:50;2.20;95.80
28552;DHT22;15752;49.560;8.708;2023-02-10T08:10:20;2.20;95.70
28552;DHT22;15752;49.560;8.708;2023-02-10T08:12:49;2.20;96.00
28552;DHT22;15752;49.560;8.708;2023-02-10T08:15:18;2.20;95.70
28552;DHT22;15752;49.560;8.708;2023-02-10T08:17:48;2.30;95.70
28552;DHT22;15752;49.560;8.708;2023-02-10T08:20:16;2.30;95.70
28552;DHT22;15752;49.560;8.708;2023-02-10T08:22:45;2.30;95.70
28552;DHT22;15752;49.560;8.708;2023-02-10T08:25:13;2.60;95.80
28552;DHT22;15752;49.560;8.708;2023-02-10T08:27:43;2.40;95.80
28552;DHT22;15752;49.560;8.708;2023-02-10T08:30:11;2.40;95.80
28552;DHT22;15752;49.560;8.708;2023-02-10T08:32:40;2.40;96.00
28552;DHT22;15752;49.560;8.708;2023-02-10T08:35:08;2.40;95.80
28552;DHT22;15752;49.560;8.708;2023-02-10T08:37:37;2.40;96.00
28552;DHT22;15752;49.560;8.708;2023-02-10T08:40:06;2.50;96.00
28552;DHT22;15752;49.560;8.708;2023-02-10T08:42:34;2.50;96.10
28552;DHT22;15752;49.560;8.708;2023-02-10T08:45:05;2.50;96.10
28552;DHT22;15752;49.560;8.708;2023-02-10T08:47:34;2.50;96.20
28552;DHT22;15752;49.560;8.708;2023-02-10T08:50:03;2.50;96.30
28552;DHT22;15752;49.560;8.708;2023-02-10T08:52:32;2.60;96.40
28552;DHT22;15752;49.560;8.708;2023-02-10T08:55:00;2.60;96.30
28552;DHT22;15752;49.560;8.708;2023-02-10T08:57:28;2.60;96.20
28552;DHT22;15752;49.560;8.708;2023-02-10T08:59:57;2.70;96.30
28552;DHT22;15752;49.560;8.708;2023-02-10T09:02:26;2.70;96.50
28552;DHT22;15752;49.560;8.708;2023-02-10T09:04:55;2.70;96.10
28552;DHT22;15752;49.560;8.708;2023-02-10T09:07:36;3.00;96.30
28552;DHT22;15752;49.560;8.708;2023-02-10T09:10:04;2.80;96.30
28552;DHT22;15752;49.560;8.708;2023-02-10T09:12:37;2.80;96.20
28552;DHT22;15752;49.560;8.708;2023-02-10T09:15:06;2.90;96.40
28552;DHT22;15752;49.560;8.708;2023-02-10T09:17:36;2.90;96.50
28552;DHT22;15752;49.560;8.708;2023-02-10T09:20:06;3.00;96.50
28552;DHT22;15752;49.560;8.708;2023-02-10T09:22:34;3.00;96.70
28552;DHT22;15752;49.560;8.708;2023-02-10T09:25:03;3.30;96.60
28552;DHT22;15752;49.560;8.708;2023-02-10T09:27:31;3.00;96.50
28552;DHT22;15752;49.560;8.708;2023-02-10T09:30:00;3.10;96.50
28552;DHT22;15752;49.560;8.708;2023-02-10T09:32:29;3.10;96.80
28552;DHT22;15752;49.560;8.708;2023-02-10T09:34:59;3.20;96.60
28552;DHT22;15752;49.560;8.708;2023-02-10T09:37:27;3.20;96.60
28552;DHT22;15752;49.560;8.708;2023-02-10T09:39:56;3.20;96.60
28552;DHT22;15752;49.560;8.708;2023-02-10T09:42:32;3.30;96.60
28552;DHT22;15752;49.560;8.708;2023-02-10T09:45:12;3.60;97.00
28552;DHT22;15752;49.560;8.708;2023-02-10T09:47:48;3.30;96.90
28552;DHT22;15752;49.560;8.708;2023-02-10T09:50:29;3.40;97.00
28552;DHT22;15752;49.560;8.708;2023-02-10T09:53:07;3.40;97.10
28552;DHT22;15752;49.560;8.708;2023-02-10T09:55:39;3.50;97.10
28552;DHT22;15752;49.560;8.708;2023-02-10T09:58:18;3.50;97.00
28552;DHT22;15752;49.560;8.708;2023-02-10T10:00:55;3.60;97.20
28552;DHT22;15752;49.560;8.708;2023-02-10T10:06:21;3.60;97.00
28552;DHT22;15752;49.560;8.708;2023-02-10T10:09:01;3.70;97.20
28552;DHT22;15752;49.560;8.708;2023-02-10T10:11:38;3.70;97.20
28552;DHT22;15752;49.560;8.708;2023-02-10T10:14:17;3.80;97.00
28552;DHT22;15752;49.560;8.708;2023-02-10T10:17:05;3.80;97.40
28552;DHT22;15752;49.560;8.708;2023-02-10T10:20:06;3.90;97.50
28552;DHT22;15752;49.560;8.708;2023-02-10T10:22:51;4.00;97.20
28552;DHT22;15752;49.560;8.708;2023-02-10T10:25:50;4.00;97.10
28552;DHT22;15752;49.560;8.708;2023-02-10T10:28:32;4.10;97.40
28552;DHT22;15752;49.560;8.708;2023-02-10T10:31:13;4.20;97.20
28552;DHT22;15752;49.560;8.708;2023-02-10T10:33:47;4.20;97.10
28552;DHT22;15752;49.560;8.708;2023-02-10T10:36:20;4.30;97.10
28552;DHT22;15752;49.560;8.708;2023-02-10T10:38:53;4.30;97.00
28552;DHT22;15752;49.560;8.708;2023-02-10T10:41:25;4.40;97.10
28552;DHT22;15752;49.560;8.708;2023-02-10T10:43:56;4.40;96.90
28552;DHT22;15752;49.560;8.708;2023-02-10T10:46:28;4.50;97.00
28552;DHT22;15752;49.560;8.708;2023-02-10T10:48:58;4.90;97.10
28552;DHT22;15752;49.560;8.708;2023-02-10T10:51:28;4.80;97.00
28552;DHT22;15752;49.560;8.708;2023-02-10T10:53:58;4.70;96.80
28552;DHT22;15752;49.560;8.708;2023-02-10T10:56:33;4.70;96.60
28552;DHT22;15752;49.560;8.708;2023-02-10T10:59:12;4.80;97.00
28552;DHT22;15752;49.560;8.708;2023-02-10T11:01:43;4.80;97.00
28552;DHT22;15752;49.560;8.708;2023-02-10T11:04:14;4.90;96.90
28552;DHT22;15752;49.560;8.708;2023-02-10T11:06:45;5.00;96.80
28552;DHT22;15752;49.560;8.708;2023-02-10T11:09:21;5.00;96.70
28552;DHT22;15752;49.560;8.708;2023-02-10T11:11:53;5.10;96.70
28552;DHT22;15752;49.560;8.708;2023-02-10T11:14:24;5.10;96.60
28552;DHT22;15752;49.560;8.708;2023-02-10T11:16:54;5.20;96.70
28552;DHT22;15752;49.560;8.708;2023-02-10T11:19:30;5.20;97.00
28552;DHT22;15752;49.560;8.708;2023-02-10T11:22:15;5.50;96.80
28552;DHT22;15752;49.560;8.708;2023-02-10T11:24:51;5.30;96.60
28552;DHT22;15752;49.560;8.708;2023-02-10T11:27:21;5.50;96.60
28552;DHT22;15752;49.560;8.708;2023-02-10T11:29:52;5.40;96.60
28552;DHT22;15752;49.560;8.708;2023-02-10T11:32:23;5.50;96.50
28552;DHT22;15752;49.560;8.708;2023-02-10T11:34:58;5.50;96.50
28552;DHT22;15752;49.560;8.708;2023-02-10T11:37:30;5.60;96.80
28552;DHT22;15752;49.560;8.708;2023-02-10T11:40:05;5.60;96.40
28552;DHT22;15752;49.560;8.708;2023-02-10T11:42:47;5.70;96.70
28552;DHT22;15752;49.560;8.708;2023-02-10T11:45:19;5.80;96.20
28552;DHT22;15752;49.560;8.708;2023-02-10T11:48:00;5.80;96.20
28552;DHT22;15752;49.560;8.708;2023-02-10T11:50:33;5.80;96.20
28552;DHT22;15752;49.560;8.708;2023-02-10T11:53:03;5.80;96.10
28552;DHT22;15752;49.560;8.708;2023-02-10T11:55:39;5.80;96.00
28552;DHT22;15752;49.560;8.708;2023-02-10T11:58:40;5.90;96.10
28552;DHT22;15752;49.560;8.708;2023-02-10T12:01:38;5.90;96.10
28552;DHT22;15752;49.560;8.708;2023-02-10T12:04:53;5.90;96.00
28552;DHT22;15752;49.560;8.708;2023-02-10T12:07:41;5.90;95.80
28552;DHT22;15752;49.560;8.708;2023-02-10T12:10:17;6.00;95.70
28552;DHT22;15752;49.560;8.708;2023-02-10T12:12:57;6.00;95.60
28552;DHT22;15752;49.560;8.708;2023-02-10T12:15:35;6.10;95.60
28552;DHT22;15752;49.560;8.708;2023-02-10T12:18:17;6.10;95.60
28552;DHT22;15752;49.560;8.708;2023-02-10T12:21:01;6.30;95.60
28552;DHT22;15752;49.560;8.708;2023-02-10T12:23:51;6.50;95.70
28552;DHT22;15752;49.560;8.708;2023-02-10T12:26:29;6.50;95.70
28552;DHT22;15752;49.560;8.708;2023-02-10T12:29:17;6.30;95.60
28552;DHT22;15752;49.560;8.708;2023-02-10T12:32:06;6.80;95.70
28552;DHT22;15752;49.560;8.708;2023-02-10T12:35:05;6.50;95.60
28552;DHT22;15752;49.560;8.708;2023-02-10T12:37:48;6.50;95.60
28552;DHT22;15752;49.560;8.708;2023-02-10T12:40:47;6.60;95.50
28552;DHT22;15752;49.560;8.708;2023-02-10T12:46:25;6.70;95.50
28552;DHT22;15752;49.560;8.708;2023-02-10T12:49:12;6.80;95.50
28552;DHT22;15752;49.560;8.708;2023-02-10T12:51:56;7.00;95.40
28552;DHT22;15752;49.560;8.708;2023-02-10T12:54:32;6.90;95.40
28552;DHT22;15752;49.560;8.708;2023-02-10T12:57:14;6.90;95.30
28552;DHT22;15752;49.560;8.708;2023-02-10T12:59:52;7.00;95.30
28552;DHT22;15752;49.560;8.708;2023-02-10T13:02:31;7.10;95.20
28552;DHT22;15752;49.560;8.708;2023-02-10T13:05:04;7.10;95.20
28552;DHT22;15752;49.560;8.708;2023-02-10T13:07:41;7.10;95.20
28552;DHT22;15752;49.560;8.708;2023-02-10T13:10:26;7.10;95.20
28552;DHT22;15752;49.560;8.708;2023-02-10T13:13:01;7.10;95.20
28552;DHT22;15752;49.560;8.708;2023-02-10T13:15:35;7.20;95.20
28552;DHT22;15752;49.560;8.708;2023-02-10T13:18:17;7.40;95.20
28552;DHT22;15752;49.560;8.708;2023-02-10T13:20:55;7.20;95.10
28552;DHT22;15752;49.560;8.708;2023-02-10T13:23:35;7.20;95.30
28552;DHT22;15752;49.560;8.708;2023-02-10T13:26:25;7.30;95.00
28552;DHT22;15752;49.560;8.708;2023-02-10T13:29:10;7.30;95.00
28552;DHT22;15752;49.560;8.708;2023-02-10T13:31:56;7.30;94.90
28552;DHT22;15752;49.560;8.708;2023-02-10T13:34:36;7.30;94.90
28552;DHT22;15752;49.560;8.708;2023-02-10T13:37:16;7.20;94.80
28552;DHT22;15752;49.560;8.708;2023-02-10T13:39:50;7.40;94.80
28552;DHT22;15752;49.560;8.708;2023-02-10T13:42:24;7.40;94.90
28552;DHT22;15752;49.560;8.708;2023-02-10T13:44:59;7.40;94.90
28552;DHT22;15752;49.560;8.708;2023-02-10T13:47:34;7.50;94.90
28552;DHT22;15752;49.560;8.708;2023-02-10T13:50:17;7.60;94.90
28552;DHT22;15752;49.560;8.708;2023-02-10T13:52:51;7.50;94.80
28552;DHT22;15752;49.560;8.708;2023-02-10T13:55:40;7.50;94.90
28552;DHT22;15752;49.560;8.708;2023-02-10T13:58:32;7.50;94.90
28552;DHT22;15752;49.560;8.708;2023-02-10T14:01:02;7.50;94.90
28552;DHT22;15752;49.560;8.708;2023-02-10T14:03:31;7.60;94.90
28552;DHT22;15752;49.560;8.708;2023-02-10T14:06:04;7.70;94.90
28552;DHT22;15752;49.560;8.708;2023-02-10T14:08:36;7.60;94.80
28552;DHT22;15752;49.560;8.708;2023-02-10T14:11:30;7.60;94.80
28552;DHT22;15752;49.560;8.708;2023-02-10T14:14:25;7.60;94.80
28552;DHT22;15752;49.560;8.708;2023-02-10T14:17:04;7.70;94.70
28552;DHT22;15752;49.560;8.708;2023-02-10T14:19:35;7.70;94.80
28552;DHT22;15752;49.560;8.708;2023-02-10T14:22:21;7.70;94.80
28552;DHT22;15752;49.560;8.708;2023-02-10T14:24:51;7.70;94.80
28552;DHT22;15752;49.560;8.708;2023-02-10T14:27:23;7.90;94.80
28552;DHT22;15752;49.560;8.708;2023-02-10T14:29:55;7.80;94.70
28552;DHT22;15752;49.560;8.708;2023-02-10T14:32:24;7.80;94.60
28552;DHT22;15752;49.560;8.708;2023-02-10T14:34:55;7.90;94.60
28552;DHT22;15752;49.560;8.708;2023-02-10T14:37:26;8.00;94.60
28552;DHT22;15752;49.560;8.708;2023-02-10T14:39:57;8.00;94.50
28552;DHT22;15752;49.560;8.708;2023-02-10T14:42:27;7.90;94.40
28552;DHT22;15752;49.560;8.708;2023-02-10T14:44:58;8.00;94.30
28552;DHT22;15752;49.560;8.708;2023-02-10T14:47:30;8.10;94.30
28552;DHT22;15752;49.560;8.708;2023-02-10T14:50:01;8.10;94.30
28552;DHT22;15752;49.560;8.708;2023-02-10T14:52:34;8.00;94.30
28552;DHT22;15752;49.560;8.708;2023-02-10T14:55:24;8.00;94.20
28552;DHT22;15752;49.560;8.708;2023-02-10T14:57:57;8.00;94.00
28552;DHT22;15752;49.560;8.708;2023-02-10T15:00:26;8.00;94.10
28552;DHT22;15752;49.560;8.708;2023-02-10T15:02:58;8.00;94.00
28552;DHT22;15752;49.560;8.708;2023-02-10T15:05:32;8.00;94.00
28552;DHT22;15752;49.560;8.708;2023-02-10T15:08:07;8.10;94.00
28552;DHT22;15752;49.560;8.708;2023-02-10T15:10:40;8.00;94.00
28552;DHT22;15752;49.560;8.708;2023-02-10T15:13:10;8.20;94.00
28552;DHT22;15752;49.560;8.708;2023-02-10T15:15:42;8.10;94.00
28552;DHT22;15752;49.560;8.708;2023-02-10T15:18:14;8.10;94.00
28552;DHT22;15752;49.560;8.708;2023-02-10T15:20:51;8.10;94.00
28552;DHT22;15752;49.560;8.708;2023-02-10T15:23:22;8.10;93.90
28552;DHT22;15752;49.560;8.708;2023-02-10T15:26:00;8.20;93.90
28552;DHT22;15752;49.560;8.708;2023-02-10T15:28:31;8.10;93.90
28552;DHT22;15752;49.560;8.708;2023-02-10T15:31:04;8.10;93.80
28552;DHT22;15752;49.560;8.708;2023-02-10T15:33:36;8.10;93.80
28552;DHT22;15752;49.560;8.708;2023-02-10T15:36:20;8.20;93.80
28552;DHT22;15752;49.560;8.708;2023-02-10T15:38:52;8.30;93.80
28552;DHT22;15752;49.560;8.708;2023-02-10T15:44:29;8.20;93.90
28552;DHT22;15752;49.560;8.708;2023-02-10T15:47:25;8.20;93.90
28552;DHT22;15752;49.560;8.708;2023-02-10T15:49:57;8.20;93.80
28552;DHT22;15752;49.560;8.708;2023-02-10T15:52:31;8.20;93.80
28552;DHT22;15752;49.560;8.708;2023-02-10T15:55:03;8.30;93.70
28552;DHT22;15752;49.560;8.708;2023-02-10T15:57:37;8.20;93.70
28552;DHT22;15752;49.560;8.708;2023-02-10T16:00:09;8.20;93.70
28552;DHT22;15752;49.560;8.708;2023-02-10T16:02:42;8.20;93.80
28552;DHT22;15752;49.560;8.708;2023-02-10T16:05:10;8.30;93.80
28552;DHT22;15752;49.560;8.708;2023-02-10T16:07:39;8.20;93.90
28552;DHT22;15752;49.560;8.708;2023-02-10T16:10:16;8.30;94.00
28552;DHT22;15752;49.560;8.708;2023-02-10T16:12:45;8.10;93.90
28552;DHT22;15752;49.560;8.708;2023-02-10T16:15:14;8.10;93.90
28552;DHT22;15752;49.560;8.708;2023-02-10T16:17:46;8.10;94.00
28552;DHT22;15752;49.560;8.708;2023-02-10T16:20:19;8.10;94.00
28552;DHT22;15752;49.560;8.708;2023-02-10T16:22:49;8.10;94.00
28552;DHT22;15752;49.560;8.708;2023-02-10T16:25:22;8.10;94.00
28552;DHT22;15752;49.560;8.708;2023-02-10T16:27:51;8.10;94.00
28552;DHT22;15752;49.560;8.708;2023-02-10T16:30:22;8.00;94.00
28552;DHT22;15752;49.560;8.708;2023-02-10T16:32:53;7.90;94.00
28552;DHT22;15752;49.560;8.708;2023-02-10T16:35:23;8.00;94.00
28552;DHT22;15752;49.560;8.708;2023-02-10T16:37:52;8.00;94.00